Ave Maria, Florida
Current Conditions -  °F | °C
As of 11:15 AM on Thursday 30 Oct 2014 (Local Time) from KIMM Reporting Station
Clear Clear  
Wind Chill: 84°   Ceiling: Unl
Heat Index: 88°   Visibility: 6mi
Dew Point: 70°   Wind: 6mph
Humidity: 62%   Direction: 160°SSE
Pressure: 29.99"   Gusts: NA
Location:  26.4288°N, 81.4387°W
Report Text: KIMM 301515Z AUTO 16005KT 6SM CLR 29/21 A2999 RMK A01 P000
Loading
Personal Weather Stations






























Interactive Weather Map
Tropical Storm Tracking
New forecast layout! Learn more

10-Day Weather Forecast

Advertisements
Track Severe Weather on mobile